Time;durP1;ratioP1;P1;durP2;ratioP2;P2;SDS_P1;SDS_P2;PMS_P1;PMS_P2;Temp;Humidity;BMP_temperature;BMP_pressure;BME280_temperature;BME280_humidity;BME280_pressure;Samples;Min_cycle;Max_cycle;Signal;HPM_P1;HPM_P2
2021/12/28 00:01:45;;;;;;;2.75;2.25;;;7.30;99.90;;;;;;5013513;28;20116;-88
2021/12/28 00:04:11;;;;;;;4.55;2.40;;;7.30;99.90;;;;;;5012527;28;20034;-88
2021/12/28 00:06:36;;;;;;;3.33;2.22;;;7.30;99.90;;;;;;5014351;28;20029;-89
2021/12/28 00:09:03;;;;;;;3.60;2.00;;;7.30;99.90;;;;;;5008995;28;20072;-89
2021/12/28 00:11:28;;;;;;;4.22;2.30;;;7.30;99.90;;;;;;5013674;28;20030;-89
2021/12/28 00:14:00;;;;;;;3.70;2.10;;;7.30;99.90;;;;;;5013041;28;20034;-89
2021/12/28 00:18:58;;;;;;;2.80;1.80;;;7.30;99.90;;;;;;5030870;28;20551;-88
2021/12/28 00:21:23;;;;;;;4.70;2.30;;;7.30;99.90;;;;;;5014397;28;20113;-88
2021/12/28 00:23:49;;;;;;;2.38;2.00;;;7.30;99.90;;;;;;5030964;28;20068;-88
2021/12/28 00:26:15;;;;;;;4.10;2.28;;;7.30;99.90;;;;;;5013628;28;20037;-89
2021/12/28 00:28:43;;;;;;;3.83;2.05;;;7.30;99.90;;;;;;5012884;28;20524;-89
2021/12/28 00:31:11;;;;;;;4.40;2.20;;;7.30;99.90;;;;;;5008476;28;20033;-89
2021/12/28 00:33:37;;;;;;;5.20;2.15;;;7.30;99.90;;;;;;5013099;28;20044;-88
2021/12/28 00:36:03;;;;;;;6.25;2.35;;;7.20;99.90;;;;;;5013753;28;20116;-89
2021/12/28 00:38:29;;;;;;;4.55;2.47;;;7.20;99.90;;;;;;5013669;28;20032;-89
2021/12/28 00:40:59;;;;;;;6.53;2.72;;;7.10;99.90;;;;;;5014603;28;20029;-89
2021/12/28 00:43:27;;;;;;;3.80;2.50;;;7.10;99.90;;;;;;5014773;28;20037;-89
2021/12/28 00:45:53;;;;;;;3.00;2.40;;;7.10;99.90;;;;;;5011090;28;20044;-88
2021/12/28 00:48:19;;;;;;;4.90;2.80;;;7.00;99.90;;;;;;5025620;28;20029;-87
2021/12/28 00:50:46;;;;;;;5.95;2.50;;;7.00;99.90;;;;;;5033625;28;20061;-88
2021/12/28 00:53:12;;;;;;;7.93;2.63;;;7.00;99.90;;;;;;5035517;28;20024;-88
2021/12/28 00:55:37;;;;;;;4.95;2.38;;;7.00;99.90;;;;;;5013245;28;20346;-89
2021/12/28 00:58:04;;;;;;;3.75;2.33;;;7.00;99.90;;;;;;5012970;28;20021;-89
2021/12/28 01:00:32;;;;;;;3.08;2.40;;;7.00;99.90;;;;;;5010416;28;20030;-89
2021/12/28 01:03:00;;;;;;;6.63;2.88;;;7.00;99.90;;;;;;5012908;28;20025;-89
2021/12/28 01:05:27;;;;;;;6.75;2.58;;;7.00;99.90;;;;;;5012844;28;20037;-89
2021/12/28 01:07:53;;;;;;;5.50;2.60;;;6.90;99.90;;;;;;5009698;28;20072;-88
2021/12/28 01:10:21;;;;;;;6.90;2.75;;;6.90;99.90;;;;;;5015165;28;20060;-89
2021/12/28 01:12:49;;;;;;;6.38;2.53;;;6.90;99.90;;;;;;5025673;28;20112;-88
2021/12/28 01:15:17;;;;;;;6.82;2.88;;;6.80;99.90;;;;;;5017644;28;20029;-88
2021/12/28 01:17:42;;;;;;;7.60;2.30;;;6.80;99.90;;;;;;5016626;28;20017;-88
2021/12/28 01:20:11;;;;;;;7.30;2.72;;;6.90;99.90;;;;;;5016958;28;20022;-89
2021/12/28 01:22:37;;;;;;;10.05;2.20;;;6.80;99.90;;;;;;5016556;28;20069;-88
2021/12/28 01:25:05;;;;;;;6.82;2.20;;;6.70;99.90;;;;;;5013099;28;20533;-88
2021/12/28 01:27:30;;;;;;;7.65;2.33;;;6.70;99.90;;;;;;5015397;28;20120;-89
2021/12/28 01:29:56;;;;;;;8.95;2.20;;;6.70;99.90;;;;;;5034243;28;20103;-89
2021/12/28 01:32:21;;;;;;;8.38;2.38;;;6.70;99.90;;;;;;5014709;28;20123;-88
2021/12/28 01:34:47;;;;;;;12.88;2.38;;;6.70;99.90;;;;;;5016146;28;20481;-88
2021/12/28 01:37:13;;;;;;;10.93;2.55;;;6.60;99.90;;;;;;5033107;28;20033;-89
2021/12/28 01:39:39;;;;;;;4.80;2.00;;;6.60;99.90;;;;;;5016472;28;20455;-88
2021/12/28 01:42:07;;;;;;;6.85;1.92;;;6.60;99.90;;;;;;5016319;28;20576;-88
2021/12/28 01:44:33;;;;;;;7.45;2.20;;;6.60;99.90;;;;;;5015745;28;20048;-89
2021/12/28 01:46:59;;;;;;;10.85;1.95;;;6.60;99.90;;;;;;5033580;28;20026;-88
2021/12/28 01:49:24;;;;;;;6.00;2.00;;;6.50;99.90;;;;;;5015214;28;20048;-88
2021/12/28 01:51:51;;;;;;;7.75;1.83;;;6.50;99.90;;;;;;5015722;28;20022;-88
2021/12/28 01:54:17;;;;;;;10.50;2.80;;;6.50;99.90;;;;;;5015312;28;20033;-88
2021/12/28 01:56:45;;;;;;;4.20;1.88;;;6.40;99.90;;;;;;5016542;28;20025;-88
2021/12/28 01:59:13;;;;;;;10.73;1.92;;;6.40;99.90;;;;;;5029890;28;20045;-89
2021/12/28 02:01:39;;;;;;;10.98;1.95;;;6.40;99.90;;;;;;5007692;28;20044;-88
2021/12/28 02:04:17;;;;;;;7.53;2.25;;;6.30;99.90;;;;;;5015344;28;20478;-89
2021/12/28 02:06:43;;;;;;;8.32;2.10;;;6.30;99.90;;;;;;4999754;28;20041;-88
2021/12/28 02:09:09;;;;;;;6.82;2.20;;;6.30;99.90;;;;;;5017671;28;20064;-89
2021/12/28 02:11:36;;;;;;;4.90;2.00;;;6.30;99.90;;;;;;5016021;28;20083;-89
2021/12/28 02:14:05;;;;;;;10.45;2.00;;;6.30;99.90;;;;;;5015693;28;20033;-88
2021/12/28 02:16:31;;;;;;;6.28;2.10;;;6.20;99.90;;;;;;5011422;28;20128;-87
2021/12/28 02:18:56;;;;;;;7.50;1.90;;;6.30;99.90;;;;;;5015235;28;20555;-88
2021/12/28 02:21:22;;;;;;;10.57;2.13;;;6.30;99.90;;;;;;5015933;28;20051;-89
2021/12/28 02:23:48;;;;;;;9.27;2.05;;;6.30;99.90;;;;;;5015129;28;20064;-89
2021/12/28 02:26:13;;;;;;;10.13;2.20;;;6.20;99.90;;;;;;5013567;28;20036;-88
2021/12/28 02:28:39;;;;;;;11.07;2.13;;;6.20;99.90;;;;;;5013500;28;20095;-88
2021/12/28 02:31:04;;;;;;;8.13;1.90;;;6.20;99.90;;;;;;5015446;28;20056;-88
2021/12/28 02:33:30;;;;;;;10.55;2.08;;;6.20;99.90;;;;;;5015231;28;20034;-89
2021/12/28 02:36:01;;;;;;;11.32;2.10;;;6.20;99.90;;;;;;5015606;28;20497;-89
2021/12/28 02:38:28;;;;;;;8.80;1.90;;;6.20;99.90;;;;;;5014621;28;20084;-88
2021/12/28 02:40:55;;;;;;;12.30;2.20;;;6.20;99.90;;;;;;5008232;28;20026;-88
2021/12/28 02:43:20;;;;;;;12.65;1.92;;;6.20;99.90;;;;;;5030350;28;20048;-88
2021/12/28 02:45:52;;;;;;;8.32;2.35;;;6.30;99.90;;;;;;5014227;28;20057;-89
2021/12/28 02:48:19;;;;;;;7.10;2.15;;;6.30;99.90;;;;;;5015453;28;20052;-88
2021/12/28 02:50:48;;;;;;;5.13;2.20;;;6.30;99.90;;;;;;5031599;28;20086;-89
2021/12/28 02:53:15;;;;;;;5.88;2.13;;;6.30;99.90;;;;;;5015824;28;20026;-89
2021/12/28 02:55:42;;;;;;;6.95;2.10;;;6.30;99.90;;;;;;5015316;28;20024;-88
2021/12/28 02:58:32;;;;;;;14.43;2.55;;;6.20;99.90;;;;;;5015093;28;20031;-88
2021/12/28 03:01:14;;;;;;;16.42;2.75;;;6.20;99.90;;;;;;5013152;28;20083;-88
2021/12/28 03:03:41;;;;;;;12.50;2.22;;;6.20;99.90;;;;;;5015847;28;20029;-88
2021/12/28 03:06:10;;;;;;;7.35;2.47;;;6.20;99.90;;;;;;5014903;28;20029;-88
2021/12/28 03:11:05;;;;;;;6.75;2.25;;;6.10;99.90;;;;;;5030693;28;20057;-65
2021/12/28 03:13:34;;;;;;;10.43;2.45;;;6.10;99.90;;;;;;5014517;28;20049;-64
2021/12/28 03:16:00;;;;;;;10.95;2.60;;;6.10;99.90;;;;;;5014582;28;20021;-65
2021/12/28 03:18:26;;;;;;;12.98;2.70;;;6.10;99.90;;;;;;5013762;28;20021;-65
2021/12/28 03:20:52;;;;;;;9.13;2.60;;;6.20;99.90;;;;;;5030937;28;20053;-68
2021/12/28 03:23:21;;;;;;;19.85;3.83;;;6.20;99.90;;;;;;5014289;28;20746;-63
2021/12/28 03:25:47;;;;;;;15.65;2.80;;;6.10;99.90;;;;;;5014934;28;20078;-65
2021/12/28 03:28:21;;;;;;;18.23;4.38;;;6.20;99.90;;;;;;5013479;28;20546;-65
2021/12/28 03:30:49;;;;;;;26.73;6.20;;;6.20;99.90;;;;;;5014593;28;20120;-66
2021/12/28 03:33:15;;;;;;;21.73;4.40;;;6.10;99.90;;;;;;5014333;28;20159;-66
2021/12/28 03:35:41;;;;;;;25.15;5.63;;;6.20;99.90;;;;;;5013773;28;20491;-66
2021/12/28 03:38:07;;;;;;;21.10;5.25;;;6.10;99.90;;;;;;5013213;28;20021;-66
2021/12/28 03:40:33;;;;;;;8.73;2.70;;;6.10;99.90;;;;;;5014437;28;20509;-65
2021/12/28 03:42:59;;;;;;;8.00;2.80;;;6.10;99.90;;;;;;5014468;28;20072;-64
2021/12/28 03:45:25;;;;;;;15.60;2.88;;;6.10;99.90;;;;;;5013761;28;20033;-66
2021/12/28 03:47:51;;;;;;;17.45;2.97;;;6.10;99.90;;;;;;5013231;28;20029;-66
2021/12/28 03:50:19;;;;;;;15.15;2.85;;;6.10;99.90;;;;;;5013699;28;20021;-66
2021/12/28 03:52:45;;;;;;;13.57;2.88;;;6.10;99.90;;;;;;5013893;28;20041;-65
2021/12/28 03:55:11;;;;;;;16.00;3.60;;;6.00;99.90;;;;;;5014066;28;20390;-66
2021/12/28 03:57:39;;;;;;;12.23;2.70;;;6.10;99.90;;;;;;5013644;28;20032;-63
2021/12/28 04:00:08;;;;;;;14.85;2.88;;;6.00;99.90;;;;;;5018422;28;20484;-64
2021/12/28 04:02:33;;;;;;;15.25;3.40;;;6.00;99.90;;;;;;4994800;28;20030;-65
2021/12/28 04:04:59;;;;;;;13.98;2.72;;;6.00;99.90;;;;;;5010616;28;20071;-67
2021/12/28 04:07:25;;;;;;;18.55;3.60;;;5.90;99.90;;;;;;5013563;28;20025;-64
2021/12/28 04:12:20;;;;;;;15.05;3.30;;;5.90;99.90;;;;;;5031607;28;20389;-64
2021/12/28 04:14:47;;;;;;;10.90;2.00;;;5.90;99.90;;;;;;5014051;28;20032;-65
2021/12/28 04:17:13;;;;;;;10.77;2.08;;;5.90;99.90;;;;;;5013023;28;20029;-65
2021/12/28 04:19:38;;;;;;;12.10;2.10;;;6.00;99.90;;;;;;5013128;28;20021;-65
2021/12/28 04:22:06;;;;;;;17.30;2.03;;;6.00;99.90;;;;;;5013826;28;20049;-64
2021/12/28 04:24:31;;;;;;;13.48;1.83;;;6.00;99.90;;;;;;5013442;28;20021;-64
2021/12/28 04:26:57;;;;;;;15.50;2.28;;;6.10;99.90;;;;;;5013629;28;20671;-68
2021/12/28 04:29:23;;;;;;;9.57;1.80;;;6.10;99.90;;;;;;5012998;28;20124;-64
2021/12/28 04:31:49;;;;;;;15.27;1.98;;;6.20;99.90;;;;;;5014056;28;20030;-66
2021/12/28 04:34:15;;;;;;;9.10;1.83;;;6.10;99.90;;;;;;5013503;28;20033;-66
2021/12/28 04:36:40;;;;;;;13.18;1.80;;;6.20;99.90;;;;;;5013594;28;20029;-66
2021/12/28 04:39:06;;;;;;;12.35;2.20;;;6.20;99.90;;;;;;5012989;28;20036;-64
2021/12/28 04:41:34;;;;;;;9.20;1.95;;;6.20;99.90;;;;;;5013636;28;20026;-67
2021/12/28 04:44:01;;;;;;;17.33;2.33;;;6.20;99.90;;;;;;5013540;28;20036;-65
2021/12/28 04:46:29;;;;;;;12.18;2.40;;;6.20;99.90;;;;;;5013471;28;20691;-64
2021/12/28 04:48:55;;;;;;;7.72;1.58;;;6.20;99.90;;;;;;5013993;28;20073;-65
2021/12/28 04:51:22;;;;;;;10.07;1.88;;;6.20;99.90;;;;;;4998108;28;20034;-68
2021/12/28 04:53:49;;;;;;;9.93;1.65;;;6.20;99.90;;;;;;4997461;28;20065;-66
2021/12/28 04:56:14;;;;;;;7.70;1.75;;;6.20;99.90;;;;;;5016641;28;20401;-66
2021/12/28 04:58:40;;;;;;;8.52;1.42;;;6.20;99.90;;;;;;5016390;28;20018;-64
2021/12/28 05:01:06;;;;;;;12.90;1.70;;;6.30;99.90;;;;;;5016374;28;20021;-65
2021/12/28 05:03:32;;;;;;;9.35;1.50;;;6.30;99.90;;;;;;5016793;28;20022;-65
2021/12/28 05:05:57;;;;;;;6.38;1.35;;;6.30;99.90;;;;;;5017839;28;20313;-66
2021/12/28 05:08:23;;;;;;;8.77;1.48;;;6.30;99.90;;;;;;5015953;28;20475;-66
2021/12/28 05:10:51;;;;;;;9.68;1.90;;;6.30;99.90;;;;;;5016581;28;20103;-64
2021/12/28 05:13:17;;;;;;;10.20;1.88;;;6.30;99.90;;;;;;5017006;28;20037;-65
2021/12/28 05:15:44;;;;;;;12.23;1.75;;;6.30;99.90;;;;;;5016645;28;20100;-64
2021/12/28 05:18:11;;;;;;;8.38;1.70;;;6.40;99.90;;;;;;5016134;28;20029;-65
2021/12/28 05:20:38;;;;;;;7.57;1.77;;;6.40;99.90;;;;;;5016678;28;20025;-63
2021/12/28 05:23:04;;;;;;;8.88;1.52;;;6.40;99.90;;;;;;5017301;28;20041;-65
2021/12/28 05:25:30;;;;;;;8.90;1.63;;;6.40;99.90;;;;;;5016398;28;20029;-66
2021/12/28 05:27:56;;;;;;;9.70;2.13;;;6.40;99.90;;;;;;5015970;28;20044;-65
2021/12/28 05:30:22;;;;;;;4.53;1.52;;;6.30;99.90;;;;;;5016576;28;20061;-66
2021/12/28 05:32:48;;;;;;;11.65;1.98;;;6.40;99.90;;;;;;5016652;28;20029;-65
2021/12/28 05:35:14;;;;;;;5.75;2.05;;;6.30;99.90;;;;;;5016656;28;20049;-66
2021/12/28 05:37:40;;;;;;;8.05;1.60;;;6.40;99.90;;;;;;5015461;28;20030;-64
2021/12/28 05:40:08;;;;;;;8.35;1.50;;;6.40;99.90;;;;;;5016620;28;20033;-66
2021/12/28 05:42:34;;;;;;;8.43;1.85;;;6.40;99.90;;;;;;5015751;28;20167;-66
2021/12/28 05:44:59;;;;;;;8.60;1.70;;;6.40;99.90;;;;;;5016067;28;20029;-64
2021/12/28 05:47:25;;;;;;;7.13;1.75;;;6.40;99.90;;;;;;5015464;28;20037;-65
2021/12/28 05:49:51;;;;;;;9.07;1.95;;;6.50;99.90;;;;;;5016273;28;20030;-65
2021/12/28 05:52:16;;;;;;;13.57;2.05;;;6.40;99.90;;;;;;5016266;28;20025;-65
2021/12/28 05:54:42;;;;;;;11.50;2.00;;;6.50;99.90;;;;;;5015816;28;20113;-66
2021/12/28 05:57:08;;;;;;;6.22;1.63;;;6.40;99.90;;;;;;5016129;28;20492;-65
2021/12/28 05:59:35;;;;;;;11.82;2.05;;;6.40;99.90;;;;;;5017667;28;20679;-66
2021/12/28 06:02:00;;;;;;;8.20;1.75;;;6.50;99.90;;;;;;5003736;28;20413;-66
2021/12/28 06:04:26;;;;;;;6.25;1.65;;;6.50;99.90;;;;;;5009779;28;20033;-64
2021/12/28 06:06:52;;;;;;;10.18;2.10;;;6.50;99.90;;;;;;5015797;28;20044;-70
2021/12/28 06:09:18;;;;;;;12.32;2.05;;;6.50;99.90;;;;;;5014601;28;20037;-65
2021/12/28 06:11:43;;;;;;;10.73;2.00;;;6.50;99.90;;;;;;5015816;28;20021;-65
2021/12/28 06:14:09;;;;;;;7.07;1.90;;;6.50;99.90;;;;;;5014869;28;20043;-67
2021/12/28 06:16:35;;;;;;;9.55;1.95;;;6.50;99.90;;;;;;5031969;28;20465;-66
2021/12/28 06:19:02;;;;;;;5.40;1.75;;;6.50;99.90;;;;;;5014683;28;20052;-65
2021/12/28 06:21:30;;;;;;;7.95;2.08;;;6.50;99.90;;;;;;5015628;28;20033;-65
2021/12/28 06:23:57;;;;;;;9.32;1.95;;;6.50;99.90;;;;;;5031738;28;20037;-64
2021/12/28 06:26:22;;;;;;;11.50;2.42;;;6.60;99.90;;;;;;5014272;28;20030;-65
2021/12/28 06:28:48;;;;;;;11.00;1.92;;;6.60;99.90;;;;;;5013052;28;20076;-65
2021/12/28 06:31:14;;;;;;;12.25;4.40;;;6.60;99.90;;;;;;5016001;28;20025;-66
2021/12/28 06:33:39;;;;;;;10.32;3.03;;;6.60;99.90;;;;;;5015031;28;20532;-65
2021/12/28 06:36:05;;;;;;;12.45;2.42;;;6.60;99.90;;;;;;5015454;28;20080;-65
2021/12/28 06:38:31;;;;;;;15.27;2.47;;;6.60;99.90;;;;;;5013668;28;20367;-65
2021/12/28 06:40:57;;;;;;;7.70;2.45;;;6.60;99.90;;;;;;5031442;28;20029;-65
2021/12/28 06:43:22;;;;;;;8.52;2.30;;;6.60;99.90;;;;;;5014805;28;20037;-63
2021/12/28 06:45:50;;;;;;;7.03;2.30;;;6.60;99.90;;;;;;5013561;28;20040;-63
2021/12/28 06:48:16;;;;;;;7.80;2.90;;;6.70;99.90;;;;;;5029088;28;20037;-66
2021/12/28 06:50:42;;;;;;;6.25;2.53;;;6.70;99.90;;;;;;5014061;28;20033;-65
2021/12/28 06:53:08;;;;;;;8.40;2.20;;;6.70;99.90;;;;;;5014914;28;20043;-66
2021/12/28 06:55:33;;;;;;;7.90;2.17;;;6.70;99.90;;;;;;5014588;28;20116;-64
2021/12/28 06:57:59;;;;;;;7.07;2.10;;;6.70;99.90;;;;;;5013967;28;20140;-66
2021/12/28 07:00:25;;;;;;;5.90;2.05;;;6.70;99.90;;;;;;5014378;28;20389;-65
2021/12/28 07:02:51;;;;;;;11.48;4.53;;;6.80;99.90;;;;;;5014960;28;20026;-65
2021/12/28 07:05:17;;;;;;;10.18;2.78;;;6.80;99.90;;;;;;5014266;28;20037;-65
2021/12/28 07:07:42;;;;;;;5.00;2.00;;;6.80;99.90;;;;;;5014112;28;20064;-64
2021/12/28 07:10:09;;;;;;;3.78;1.70;;;6.80;99.90;;;;;;5014551;28;20033;-65
2021/12/28 07:12:35;;;;;;;4.80;1.70;;;6.80;99.90;;;;;;5014290;28;20071;-64
2021/12/28 07:15:01;;;;;;;2.33;1.77;;;6.90;99.90;;;;;;5015174;28;20486;-65
2021/12/28 07:17:27;;;;;;;5.72;1.75;;;6.90;99.90;;;;;;5014226;28;20069;-63
2021/12/28 07:19:53;;;;;;;7.47;1.90;;;6.80;99.90;;;;;;5014776;28;20018;-63
2021/12/28 07:22:19;;;;;;;4.72;1.88;;;6.90;99.90;;;;;;5014463;28;20037;-65
2021/12/28 07:24:45;;;;;;;4.15;1.50;;;6.90;99.90;;;;;;5014555;28;20067;-65
2021/12/28 07:27:11;;;;;;;2.55;1.70;;;6.90;99.90;;;;;;5013497;28;20112;-64
2021/12/28 07:29:39;;;;;;;4.45;1.85;;;7.00;99.90;;;;;;5012221;28;20040;-64
2021/12/28 07:32:08;;;;;;;6.30;1.70;;;7.00;99.90;;;;;;5037939;28;20028;-64
2021/12/28 07:34:34;;;;;;;4.30;1.77;;;7.00;99.90;;;;;;5015066;28;20017;-64
2021/12/28 07:37:01;;;;;;;5.35;2.10;;;7.00;99.90;;;;;;5014028;28;20021;-66
2021/12/28 07:39:27;;;;;;;3.58;1.85;;;7.00;99.90;;;;;;5014384;28;20017;-65
2021/12/28 07:41:53;;;;;;;6.82;2.70;;;7.00;99.90;;;;;;5014338;28;20496;-65
2021/12/28 07:44:18;;;;;;;5.95;2.28;;;7.00;99.90;;;;;;5013823;28;20040;-67
2021/12/28 07:46:44;;;;;;;4.25;1.92;;;7.00;99.90;;;;;;5014373;28;20417;-64
2021/12/28 07:49:10;;;;;;;11.70;4.53;;;7.00;99.90;;;;;;5029704;28;20079;-66
2021/12/28 07:51:39;;;;;;;9.25;4.60;;;7.10;99.90;;;;;;5013999;28;20025;-64
2021/12/28 07:54:05;;;;;;;4.28;2.55;;;7.00;99.90;;;;;;5014398;28;20059;-66
2021/12/28 07:56:30;;;;;;;7.38;3.05;;;7.10;99.90;;;;;;5029215;28;20458;-66
2021/12/28 07:58:56;;;;;;;7.70;3.05;;;7.10;99.90;;;;;;5013854;28;20021;-65
2021/12/28 08:01:22;;;;;;;5.88;2.05;;;7.10;99.90;;;;;;5030794;28;20067;-66
2021/12/28 08:03:47;;;;;;;5.47;2.42;;;7.10;99.90;;;;;;5009805;28;20026;-64
2021/12/28 08:06:13;;;;;;;4.07;1.95;;;7.10;99.90;;;;;;5000778;28;20029;-66
2021/12/28 08:08:39;;;;;;;4.25;2.05;;;7.10;99.90;;;;;;5010374;28;20453;-65
2021/12/28 08:11:05;;;;;;;4.32;2.10;;;7.10;99.90;;;;;;5014135;28;20033;-65
2021/12/28 08:13:30;;;;;;;3.13;2.00;;;7.10;99.90;;;;;;5023392;28;20044;-65
2021/12/28 08:15:56;;;;;;;3.78;1.92;;;7.20;99.90;;;;;;5039971;28;20029;-67
2021/12/28 08:18:22;;;;;;;6.63;2.00;;;7.20;99.90;;;;;;5012269;28;20079;-66
2021/12/28 08:20:48;;;;;;;3.17;1.85;;;7.20;99.90;;;;;;5012791;28;20022;-65
2021/12/28 08:23:14;;;;;;;3.30;1.95;;;7.20;99.90;;;;;;5018211;28;20033;-64
2021/12/28 08:25:40;;;;;;;4.18;2.65;;;7.30;99.90;;;;;;5017193;28;20025;-64
2021/12/28 08:28:06;;;;;;;6.50;2.30;;;7.30;99.90;;;;;;5033436;28;20032;-66
2021/12/28 08:30:35;;;;;;;4.57;2.20;;;7.30;99.90;;;;;;5026539;28;20064;-66
2021/12/28 08:33:02;;;;;;;4.80;2.28;;;7.40;99.90;;;;;;5023507;28;20036;-64
2021/12/28 08:35:28;;;;;;;2.08;1.88;;;7.40;99.90;;;;;;5017730;28;20222;-66
2021/12/28 08:37:53;;;;;;;1.83;1.70;;;7.40;99.90;;;;;;5016574;28;20404;-66
2021/12/28 08:40:20;;;;;;;4.13;2.17;;;7.40;99.90;;;;;;5016577;28;20490;-66
2021/12/28 08:42:46;;;;;;;2.78;1.70;;;7.40;99.90;;;;;;5011887;28;20040;-65
2021/12/28 08:45:13;;;;;;;2.95;2.13;;;7.40;99.90;;;;;;5013610;28;20025;-65
2021/12/28 08:47:39;;;;;;;3.15;2.08;;;7.50;99.90;;;;;;5025691;28;20045;-65
2021/12/28 08:50:08;;;;;;;3.10;2.13;;;7.50;99.90;;;;;;5035440;28;20021;-67
2021/12/28 08:52:35;;;;;;;4.57;3.03;;;7.50;99.90;;;;;;4997691;28;20466;-66
2021/12/28 08:55:01;;;;;;;3.75;1.70;;;7.50;99.90;;;;;;5019147;28;20022;-65
2021/12/28 08:57:26;;;;;;;2.03;1.75;;;7.60;99.90;;;;;;5016603;28;20028;-66
2021/12/28 08:59:52;;;;;;;3.13;1.90;;;7.50;99.90;;;;;;5017550;28;20025;-65
2021/12/28 09:02:18;;;;;;;3.88;1.58;;;7.50;99.90;;;;;;5016726;28;20029;-66
2021/12/28 09:04:46;;;;;;;2.90;1.65;;;7.60;99.90;;;;;;5023277;28;20021;-66
2021/12/28 09:07:16;;;;;;;3.05;1.30;;;7.60;99.90;;;;;;5016269;28;20025;-65
2021/12/28 09:09:42;;;;;;;1.63;1.40;;;7.60;99.90;;;;;;5016244;28;20393;-65
2021/12/28 09:12:09;;;;;;;2.25;1.70;;;7.60;99.90;;;;;;5016661;28;20029;-66
2021/12/28 09:14:35;;;;;;;2.58;1.33;;;7.60;99.90;;;;;;5016596;28;20036;-65
2021/12/28 09:17:02;;;;;;;2.33;1.48;;;7.60;99.90;;;;;;5015905;28;20022;-66
2021/12/28 09:19:28;;;;;;;1.77;1.50;;;7.60;99.90;;;;;;5016039;28;20032;-66
2021/12/28 09:21:53;;;;;;;2.70;1.77;;;7.70;99.90;;;;;;5023341;28;20025;-64
2021/12/28 09:24:19;;;;;;;2.20;1.92;;;7.70;99.90;;;;;;5016269;28;20025;-66
2021/12/28 09:26:45;;;;;;;2.33;1.30;;;7.70;99.90;;;;;;5032895;28;20034;-65
2021/12/28 09:29:11;;;;;;;1.40;1.10;;;7.70;99.90;;;;;;5032108;28;20478;-65
2021/12/28 09:31:36;;;;;;;1.80;1.33;;;7.80;99.90;;;;;;5013419;28;20510;-67
2021/12/28 09:34:03;;;;;;;1.30;1.20;;;7.80;99.90;;;;;;5013254;28;20025;-66
2021/12/28 09:36:29;;;;;;;1.40;0.93;;;7.80;99.90;;;;;;5016247;28;20076;-66
2021/12/28 09:38:55;;;;;;;1.38;1.08;;;7.80;99.90;;;;;;5014982;28;20017;-67
2021/12/28 09:41:21;;;;;;;1.52;1.15;;;7.90;99.90;;;;;;5015215;28;20029;-67
2021/12/28 09:43:46;;;;;;;1.38;1.17;;;7.90;99.90;;;;;;5013235;28;20112;-67
2021/12/28 09:46:12;;;;;;;1.23;0.98;;;7.90;99.90;;;;;;5014808;28;20021;-66
2021/12/28 09:48:38;;;;;;;2.45;1.10;;;7.90;99.90;;;;;;5016168;28;20084;-66
2021/12/28 09:51:05;;;;;;;1.60;1.50;;;7.90;99.90;;;;;;5014864;28;20046;-66
2021/12/28 09:53:31;;;;;;;2.20;1.00;;;7.90;99.90;;;;;;5014857;28;20104;-66
2021/12/28 09:55:57;;;;;;;1.25;1.15;;;7.90;99.90;;;;;;5019427;28;20442;-66
2021/12/28 09:58:23;;;;;;;2.78;0.90;;;7.90;99.90;;;;;;5015815;28;20060;-64
2021/12/28 10:00:49;;;;;;;1.33;1.00;;;8.00;99.90;;;;;;5014300;28;20172;-65
2021/12/28 10:03:15;;;;;;;1.88;1.23;;;8.00;99.90;;;;;;5015158;28;20060;-64
2021/12/28 10:05:42;;;;;;;2.03;1.50;;;8.00;99.90;;;;;;5016125;28;20025;-67
2021/12/28 10:08:08;;;;;;;1.23;1.10;;;8.00;99.90;;;;;;5013655;28;20485;-67
2021/12/28 10:10:37;;;;;;;1.63;0.90;;;8.00;99.90;;;;;;5017288;28;20048;-67
2021/12/28 10:13:08;;;;;;;1.48;1.30;;;8.00;99.90;;;;;;5016608;28;20025;-66
2021/12/28 10:15:37;;;;;;;1.10;1.00;;;8.10;99.90;;;;;;5015588;28;20025;-66
2021/12/28 10:18:07;;;;;;;1.27;0.90;;;8.10;99.90;;;;;;5014156;28;20661;-65
2021/12/28 10:20:54;;;;;;;1.88;1.08;;;8.10;99.90;;;;;;5015376;28;20175;-66
2021/12/28 10:23:23;;;;;;;2.40;2.00;;;8.10;99.90;;;;;;5031614;28;20037;-67
2021/12/28 10:26:02;;;;;;;3.97;2.97;;;8.10;99.90;;;;;;5019810;28;20033;-66
2021/12/28 10:28:34;;;;;;;2.30;1.60;;;8.10;99.90;;;;;;5014374;28;20040;-66
2021/12/28 10:31:07;;;;;;;2.15;1.80;;;8.10;99.90;;;;;;4995959;28;20048;-66
2021/12/28 10:33:36;;;;;;;2.85;1.80;;;8.10;99.90;;;;;;5028534;28;20044;-67
2021/12/28 10:36:09;;;;;;;2.45;1.45;;;8.20;99.90;;;;;;5015470;28;20025;-66
2021/12/28 10:38:44;;;;;;;1.73;1.55;;;8.20;99.90;;;;;;5014128;28;20339;-67
2021/12/28 10:41:13;;;;;;;1.50;1.38;;;8.20;99.90;;;;;;5010792;28;20416;-68
2021/12/28 10:43:45;;;;;;;1.42;1.33;;;8.30;99.90;;;;;;5030926;28;20116;-66
2021/12/28 10:46:17;;;;;;;1.27;1.17;;;8.30;99.90;;;;;;4995102;28;20053;-66
2021/12/28 10:48:50;;;;;;;1.00;0.80;;;8.30;99.90;;;;;;5015181;28;20525;-66
2021/12/28 10:51:20;;;;;;;1.65;1.13;;;8.40;99.90;;;;;;5015202;28;20033;-67
2021/12/28 10:56:58;;;;;;;2.65;0.82;;;8.40;99.90;;;;;;5052165;28;20060;-65
2021/12/28 10:59:34;;;;;;;1.42;0.98;;;8.50;99.90;;;;;;5020978;28;20124;-65
2021/12/28 11:02:01;;;;;;;3.00;1.42;;;8.50;99.90;;;;;;5018166;28;20127;-66
2021/12/28 11:04:37;;;;;;;0.68;0.65;;;8.50;99.90;;;;;;5034947;28;20029;-67
2021/12/28 11:07:06;;;;;;;1.30;0.63;;;8.50;99.90;;;;;;5032212;28;20029;-66
2021/12/28 11:09:31;;;;;;;0.90;0.77;;;8.60;99.90;;;;;;5026078;28;20124;-65
2021/12/28 11:11:58;;;;;;;0.60;0.60;;;8.60;99.90;;;;;;5016108;28;20112;-68
2021/12/28 11:14:27;;;;;;;0.98;0.80;;;8.70;99.90;;;;;;5014349;28;20037;-67
2021/12/28 11:17:00;;;;;;;2.50;2.08;;;8.70;99.90;;;;;;5014620;28;20048;-67
2021/12/28 11:19:29;;;;;;;1.92;1.10;;;8.80;99.90;;;;;;5014662;28;20025;-66
2021/12/28 11:22:00;;;;;;;1.70;1.20;;;8.80;99.90;;;;;;5028485;28;20498;-66
2021/12/28 11:24:31;;;;;;;1.37;1.27;;;8.90;99.90;;;;;;5027706;28;20029;-66
2021/12/28 11:26:57;;;;;;;2.55;1.33;;;8.90;99.90;;;;;;5014479;28;20036;-68
2021/12/28 11:29:30;;;;;;;1.40;1.30;;;8.90;99.90;;;;;;5014305;28;20545;-66
2021/12/28 11:32:02;;;;;;;3.13;2.03;;;9.00;99.90;;;;;;5013943;28;20033;-65
2021/12/28 11:34:32;;;;;;;2.42;1.75;;;9.00;99.90;;;;;;5015769;28;20053;-66
2021/12/28 11:37:01;;;;;;;3.22;1.70;;;9.00;99.90;;;;;;5034785;28;20032;-68
2021/12/28 11:39:33;;;;;;;2.17;1.35;;;9.10;99.90;;;;;;5024100;28;20052;-67
2021/12/28 11:41:59;;;;;;;2.30;1.30;;;9.10;99.90;;;;;;5006221;28;20038;-66
2021/12/28 11:44:27;;;;;;;1.85;1.30;;;9.20;99.90;;;;;;5015410;28;20029;-65
2021/12/28 11:46:55;;;;;;;1.40;1.10;;;9.20;99.90;;;;;;5031966;28;20045;-67
2021/12/28 11:49:25;;;;;;;1.58;1.40;;;9.30;99.90;;;;;;5027295;28;20033;-67
2021/12/28 11:51:52;;;;;;;0.85;0.85;;;9.40;99.90;;;;;;5048480;28;20039;-67
2021/12/28 11:54:21;;;;;;;1.10;1.00;;;9.50;99.90;;;;;;5031689;28;20132;-65
2021/12/28 11:56:52;;;;;;;4.10;1.45;;;9.50;99.90;;;;;;5013825;28;20022;-67
2021/12/28 11:59:20;;;;;;;2.10;1.02;;;9.60;99.90;;;;;;5012905;28;20052;-67
2021/12/28 12:01:52;;;;;;;3.70;0.90;;;9.60;99.90;;;;;;5013840;28;20482;-67
2021/12/28 12:04:30;;;;;;;2.03;1.35;;;9.60;99.90;;;;;;5013987;28;20029;-66
2021/12/28 12:07:05;;;;;;;1.73;1.17;;;9.60;99.90;;;;;;5029366;28;20056;-67
2021/12/28 12:09:32;;;;;;;1.63;1.45;;;9.70;99.90;;;;;;5017430;28;20099;-66
2021/12/28 12:12:17;;;;;;;1.60;1.38;;;9.70;99.90;;;;;;5013767;28;20041;-66
2021/12/28 12:14:52;;;;;;;0.90;0.70;;;9.70;99.90;;;;;;5013469;28;20029;-67
2021/12/28 12:20:06;;;;;;;0.70;0.70;;;9.70;99.90;;;;;;5049908;28;20041;-66
2021/12/28 12:22:32;;;;;;;1.23;0.65;;;9.70;99.90;;;;;;4994098;28;20392;-66
2021/12/28 12:25:00;;;;;;;1.00;0.80;;;9.70;99.90;;;;;;5017355;22;20070;-70
2021/12/28 12:27:45;;;;;;;0.80;0.80;;;9.70;99.90;;;;;;4990155;28;20054;-71
2021/12/28 12:30:23;;;;;;;5.72;4.57;;;9.70;99.90;;;;;;4995928;28;20022;-71
2021/12/28 12:33:01;;;;;;;3.33;2.65;;;9.70;99.90;;;;;;4971431;28;20458;-70
2021/12/28 12:35:28;;;;;;;1.80;1.70;;;9.80;99.90;;;;;;4988213;28;20050;-71
2021/12/28 12:37:54;;;;;;;1.40;1.30;;;9.80;99.90;;;;;;4989927;28;20097;-70
2021/12/28 12:40:20;;;;;;;1.50;0.90;;;9.80;99.90;;;;;;4974197;28;20029;-71
2021/12/28 12:43:13;;;;;;;1.33;1.23;;;9.80;99.90;;;;;;4974513;28;20069;-71
2021/12/28 12:45:52;;;;;;;1.75;1.20;;;9.90;99.90;;;;;;4975479;28;20516;-70
2021/12/28 12:48:31;;;;;;;1.55;1.45;;;9.90;99.90;;;;;;4989859;28;20371;-71
2021/12/28 12:51:18;;;;;;;4.53;3.60;;;9.90;99.90;;;;;;5007851;28;20063;-71
2021/12/28 12:53:59;;;;;;;1.98;1.77;;;9.90;99.90;;;;;;4997680;28;20056;-71
2021/12/28 12:56:33;;;;;;;3.28;2.45;;;9.90;99.90;;;;;;4990756;28;20374;-70
2021/12/28 12:59:19;;;;;;;4.10;3.53;;;10.00;99.90;;;;;;4987794;28;20058;-70
2021/12/28 13:01:47;;;;;;;5.07;3.97;;;10.00;99.90;;;;;;5010240;28;20053;-70
2021/12/28 13:04:25;;;;;;;9.02;5.60;;;10.00;99.90;;;;;;4995407;28;20445;-70
2021/12/28 13:07:24;;;;;;;1.63;1.52;;;10.00;99.90;;;;;;4990563;28;20038;-71
2021/12/28 13:09:57;;;;;;;6.00;3.83;;;10.10;99.90;;;;;;4994187;28;20085;-70
2021/12/28 13:12:24;;;;;;;2.85;1.92;;;10.10;99.90;;;;;;4984325;28;20054;-71